createdAt,value
2022-09-28T00:00:45.885Z,0.00
2022-09-28T00:01:48.964Z,0.00
2022-09-28T00:02:48.946Z,0.00
2022-09-28T00:03:45.844Z,0.00
2022-09-28T00:04:45.855Z,0.00
2022-09-28T00:05:45.825Z,0.00
2022-09-28T00:06:45.796Z,0.00
2022-09-28T00:07:45.796Z,0.00
2022-09-28T00:08:45.804Z,0.00
2022-09-28T00:09:45.755Z,0.00
2022-09-28T00:10:45.738Z,0.00
2022-09-28T00:11:45.739Z,0.00
2022-09-28T00:12:45.731Z,0.00
2022-09-28T00:13:45.768Z,0.00
2022-09-28T00:14:45.688Z,0.00
2022-09-28T00:15:45.675Z,0.00
2022-09-28T00:16:45.693Z,0.00
2022-09-28T00:17:45.648Z,0.00
2022-09-28T00:18:45.663Z,0.00
2022-09-28T00:19:45.685Z,0.00
2022-09-28T00:20:45.598Z,0.00
2022-09-28T00:21:48.597Z,0.00
2022-09-28T00:22:48.584Z,0.00
2022-09-28T00:23:45.576Z,0.00
2022-09-28T00:24:45.549Z,0.00
2022-09-28T00:25:45.560Z,0.00
2022-09-28T00:26:45.532Z,0.00
2022-09-28T00:27:45.510Z,0.00
2022-09-28T00:28:45.501Z,0.00
2022-09-28T00:29:45.640Z,0.00
2022-09-28T00:30:45.469Z,0.00
2022-09-28T00:31:45.541Z,0.00
2022-09-28T00:32:45.441Z,0.00
2022-09-28T00:33:45.431Z,0.00
2022-09-28T00:34:45.428Z,0.00
2022-09-28T00:35:45.422Z,0.00
2022-09-28T00:36:45.381Z,0.00
2022-09-28T00:37:45.384Z,0.00
2022-09-28T00:38:45.363Z,0.00
2022-09-28T00:39:45.371Z,0.00
2022-09-28T00:40:45.419Z,0.00
2022-09-28T00:41:48.373Z,0.00
2022-09-28T00:42:48.306Z,0.00
2022-09-28T00:43:45.290Z,0.00
2022-09-28T00:44:45.264Z,0.00
2022-09-28T00:45:45.293Z,0.00
2022-09-28T00:46:45.246Z,0.00
2022-09-28T00:47:45.261Z,0.00
2022-09-28T00:48:45.215Z,0.00
2022-09-28T00:49:45.195Z,0.00
2022-09-28T00:50:45.199Z,0.00
2022-09-28T00:51:45.175Z,0.00
2022-09-28T00:52:45.317Z,0.00
2022-09-28T00:53:45.154Z,0.00
2022-09-28T00:54:45.137Z,0.00
2022-09-28T00:55:45.119Z,0.00
2022-09-28T00:56:45.097Z,0.00
2022-09-28T00:57:45.088Z,0.00
2022-09-28T00:58:45.109Z,0.00
2022-09-28T00:59:45.058Z,0.00
2022-09-28T01:00:45.123Z,67108860.00
2022-09-28T01:01:49.211Z,67108860.00
2022-09-28T01:02:48.111Z,67108860.00
2022-09-28T01:03:47.967Z,67108860.00
2022-09-28T01:04:55.166Z,67108860.00
2022-09-28T01:05:44.980Z,67108860.00
2022-09-28T01:06:44.971Z,67108860.00
2022-09-28T01:07:44.953Z,67108860.00
2022-09-28T01:08:44.942Z,67108860.00
2022-09-28T01:09:45.070Z,67108860.00
2022-09-28T01:10:44.911Z,67108860.00
2022-09-28T01:11:44.897Z,67108860.00
2022-09-28T01:12:44.881Z,0.00
2022-09-28T01:13:44.871Z,0.00
2022-09-28T01:14:44.851Z,0.00
2022-09-28T01:15:44.873Z,0.00
2022-09-28T01:16:44.875Z,0.00
2022-09-28T01:17:44.813Z,67108860.00
2022-09-28T01:18:44.862Z,0.00
2022-09-28T01:19:44.782Z,0.00
2022-09-28T01:20:44.775Z,0.00
2022-09-28T01:21:47.751Z,0.00
2022-09-28T01:22:47.745Z,0.00
2022-09-28T01:23:47.791Z,0.00
2022-09-28T01:24:44.707Z,0.00
2022-09-28T01:25:44.695Z,0.00
2022-09-28T01:26:44.694Z,0.00
2022-09-28T01:27:44.674Z,0.00
2022-09-28T01:28:44.644Z,0.00
2022-09-28T01:29:44.667Z,0.00
2022-09-28T01:30:44.625Z,0.00
2022-09-28T01:31:44.672Z,0.00
2022-09-28T01:32:44.605Z,0.00
2022-09-28T01:33:44.576Z,0.00
2022-09-28T01:34:44.627Z,0.00
2022-09-28T01:35:44.560Z,0.00
2022-09-28T01:36:44.546Z,0.00
2022-09-28T01:37:44.528Z,0.00
2022-09-28T01:38:44.518Z,0.00
2022-09-28T01:39:44.559Z,0.00
2022-09-28T01:40:44.498Z,0.00
2022-09-28T01:41:44.468Z,0.00
2022-09-28T01:42:47.466Z,0.00
2022-09-28T01:43:47.460Z,0.00
2022-09-28T01:44:44.428Z,0.00
2022-09-28T01:45:44.497Z,0.00
2022-09-28T01:46:44.426Z,0.00
2022-09-28T01:47:44.389Z,0.00
2022-09-28T01:48:44.379Z,0.00
2022-09-28T01:49:44.359Z,0.00
2022-09-28T01:50:44.350Z,0.00
2022-09-28T01:51:44.368Z,0.00
2022-09-28T01:52:44.330Z,0.00
2022-09-28T01:53:44.311Z,0.00
2022-09-28T01:54:44.340Z,0.00
2022-09-28T01:55:44.288Z,0.00
2022-09-28T01:56:44.261Z,0.00
2022-09-28T01:57:44.252Z,0.00
2022-09-28T01:58:44.246Z,0.00
2022-09-28T01:59:44.229Z,0.00
2022-09-28T02:00:44.263Z,0.00
2022-09-28T02:01:44.234Z,0.00
2022-09-28T02:02:47.243Z,0.00
2022-09-28T02:03:47.192Z,0.00
2022-09-28T02:04:44.153Z,0.00
2022-09-28T02:05:44.132Z,0.00
2022-09-28T02:06:44.133Z,0.00
2022-09-28T02:07:44.104Z,0.00
2022-09-28T02:08:44.137Z,0.00
2022-09-28T02:09:44.092Z,0.00
2022-09-28T02:10:44.074Z,0.00
2022-09-28T02:11:44.054Z,0.00
2022-09-28T02:12:44.105Z,0.00
2022-09-28T02:13:44.043Z,0.00
2022-09-28T02:14:44.016Z,0.00
2022-09-28T02:15:44.005Z,0.00
2022-09-28T02:16:44.046Z,0.00
2022-09-28T02:17:43.985Z,0.00
2022-09-28T02:18:43.986Z,0.00
2022-09-28T02:19:43.953Z,0.00
2022-09-28T02:20:43.958Z,0.00
2022-09-28T02:21:43.946Z,0.00
2022-09-28T02:22:46.912Z,0.00
2022-09-28T02:23:46.914Z,0.00
2022-09-28T02:24:43.878Z,0.00
2022-09-28T02:25:43.866Z,0.00
2022-09-28T02:26:43.909Z,0.00
2022-09-28T02:27:43.850Z,0.00
2022-09-28T02:28:43.828Z,0.00
2022-09-28T02:29:43.818Z,0.00
2022-09-28T02:30:43.812Z,0.00
2022-09-28T02:31:43.869Z,0.00
2022-09-28T02:32:43.801Z,0.00
2022-09-28T02:33:43.780Z,0.00
2022-09-28T02:34:43.750Z,0.00
2022-09-28T02:35:43.737Z,0.00
2022-09-28T02:36:43.767Z,0.00
2022-09-28T02:37:43.710Z,0.00
2022-09-28T02:38:43.723Z,0.00
2022-09-28T02:39:43.690Z,0.00
2022-09-28T02:40:43.690Z,0.00
2022-09-28T02:41:43.670Z,0.00
2022-09-28T02:42:46.645Z,0.00
2022-09-28T02:43:46.694Z,0.00
2022-09-28T02:44:46.642Z,0.00
2022-09-28T02:45:43.647Z,67108860.00
2022-09-28T02:46:43.594Z,67108860.00
2022-09-28T02:47:43.604Z,67108860.00
2022-09-28T02:48:45.679Z,67108860.00
2022-09-28T02:49:43.593Z,67108860.00
2022-09-28T02:50:43.565Z,67108860.00
2022-09-28T02:51:43.533Z,67108860.00
2022-09-28T02:52:43.536Z,67108860.00
2022-09-28T02:53:43.513Z,67108860.00
2022-09-28T02:54:43.544Z,67108860.00
2022-09-28T02:55:43.485Z,67108860.00
2022-09-28T02:56:43.478Z,67108860.00
2022-09-28T02:57:43.454Z,67108860.00
2022-09-28T02:58:43.443Z,67108860.00
2022-09-28T02:59:43.435Z,67108860.00
2022-09-28T03:00:43.634Z,67108860.00
2022-09-28T03:01:43.420Z,67108860.00
2022-09-28T03:02:43.455Z,67108860.00
2022-09-28T03:03:46.376Z,67108860.00
2022-09-28T03:04:46.356Z,67108860.00
2022-09-28T03:05:46.825Z,67108860.00
2022-09-28T03:06:43.349Z,67108860.00
2022-09-28T03:07:43.318Z,67108860.00
2022-09-28T03:08:43.347Z,67108860.00
2022-09-28T03:09:43.287Z,67108860.00
2022-09-28T03:10:43.294Z,67108860.00
2022-09-28T03:11:43.273Z,67108860.00
2022-09-28T03:12:43.287Z,67108860.00
2022-09-28T03:13:43.238Z,67108860.00
2022-09-28T03:14:43.217Z,67108860.00
2022-09-28T03:15:47.802Z,67108860.00
2022-09-28T03:16:44.270Z,67108860.00
2022-09-28T03:17:43.219Z,67108860.00
2022-09-28T03:18:43.235Z,67108860.00
2022-09-28T03:19:43.147Z,67108860.00
2022-09-28T03:20:43.152Z,67108860.00
2022-09-28T03:21:43.130Z,67108860.00
2022-09-28T03:22:43.252Z,67108860.00
2022-09-28T03:23:43.101Z,67108860.00
2022-09-28T03:24:46.141Z,67108860.00
2022-09-28T03:25:46.092Z,67108860.00
2022-09-28T03:26:43.077Z,67108860.00
2022-09-28T03:27:43.051Z,67108860.00
2022-09-28T03:28:43.045Z,67108860.00
2022-09-28T03:29:43.023Z,67108860.00
2022-09-28T03:30:43.057Z,67108860.00
2022-09-28T03:31:43.054Z,67108860.00
2022-09-28T03:32:42.994Z,67108860.00
2022-09-28T03:33:43.031Z,67108860.00
2022-09-28T03:34:42.965Z,67108860.00
2022-09-28T03:35:42.948Z,67108860.00
2022-09-28T03:36:42.934Z,67108860.00
2022-09-28T03:37:42.915Z,67108860.00
2022-09-28T03:38:42.904Z,67108860.00
2022-09-28T03:39:42.915Z,67108860.00
2022-09-28T03:40:43.006Z,67108860.00
2022-09-28T03:41:42.854Z,67108860.00
2022-09-28T03:42:42.845Z,67108860.00
2022-09-28T03:43:42.837Z,67108860.00
2022-09-28T03:44:45.864Z,67108860.00
2022-09-28T03:45:45.890Z,67108860.00
2022-09-28T03:46:42.828Z,67108860.00
2022-09-28T03:47:42.776Z,67108860.00
2022-09-28T03:48:42.767Z,67108860.00
2022-09-28T03:49:42.755Z,67108860.00
2022-09-28T03:50:42.746Z,67108860.00
2022-09-28T03:51:42.780Z,67108860.00
2022-09-28T03:52:42.716Z,67108860.00
2022-09-28T03:53:42.699Z,67108860.00
2022-09-28T03:54:46.950Z,67108860.00
2022-09-28T03:55:43.677Z,67108860.00
2022-09-28T03:56:42.677Z,67108860.00
2022-09-28T03:57:42.708Z,67108860.00
2022-09-28T03:58:42.628Z,67108860.00
2022-09-28T03:59:42.616Z,67108860.00
2022-09-28T04:00:42.645Z,67108860.00
2022-09-28T04:01:42.614Z,67108860.00
2022-09-28T04:02:42.571Z,67108860.00
2022-09-28T04:03:42.581Z,67108860.00
2022-09-28T04:04:45.520Z,67108860.00
2022-09-28T04:05:45.541Z,67108860.00
2022-09-28T04:06:42.522Z,67108860.00
2022-09-28T04:07:42.490Z,67108860.00
2022-09-28T04:08:42.650Z,67108860.00
2022-09-28T04:09:42.468Z,67108860.00
2022-09-28T04:10:42.441Z,67108860.00
2022-09-28T04:11:59.703Z,67108860.00
2022-09-28T04:12:43.445Z,67108860.00
2022-09-28T04:13:42.401Z,67108860.00
2022-09-28T04:14:42.433Z,67108860.00
2022-09-28T04:15:42.383Z,67108860.00
2022-09-28T04:16:42.424Z,67108860.00
2022-09-28T04:17:42.367Z,67108860.00
2022-09-28T04:18:42.409Z,67108860.00
2022-09-28T04:19:42.342Z,67108860.00
2022-09-28T04:20:42.332Z,67108860.00
2022-09-28T04:21:42.324Z,67108860.00
2022-09-28T04:22:42.293Z,67108860.00
2022-09-28T04:23:42.292Z,67108860.00
2022-09-28T04:24:45.319Z,67108860.00
2022-09-28T04:25:45.284Z,67108860.00
2022-09-28T04:26:42.291Z,67108860.00
2022-09-28T04:27:42.244Z,67108860.00
2022-09-28T04:28:42.245Z,67108860.00
2022-09-28T04:29:42.215Z,67108860.00
2022-09-28T04:30:42.196Z,67108860.00
2022-09-28T04:31:42.318Z,67108860.00
2022-09-28T04:32:42.175Z,67108860.00
2022-09-28T04:33:42.169Z,67108860.00
2022-09-28T04:34:44.285Z,67108860.00
2022-09-28T04:35:42.137Z,67108860.00
2022-09-28T04:36:42.118Z,67108860.00
2022-09-28T04:37:42.167Z,67108860.00
2022-09-28T04:38:52.730Z,67108860.00
2022-09-28T04:39:47.467Z,67108860.00
2022-09-28T04:40:43.145Z,67108860.00
2022-09-28T04:41:42.062Z,67108860.00
2022-09-28T04:42:42.051Z,67108860.00
2022-09-28T04:43:42.058Z,67108860.00
2022-09-28T04:44:45.018Z,67108860.00
2022-09-28T04:45:45.086Z,67108860.00
2022-09-28T04:46:41.998Z,67108860.00
2022-09-28T04:47:42.148Z,67108860.00
2022-09-28T04:48:41.967Z,67108860.00
2022-09-28T04:49:41.954Z,67108860.00
2022-09-28T04:50:41.939Z,67108860.00
2022-09-28T04:51:41.925Z,67108860.00
2022-09-28T04:52:41.913Z,67108860.00
2022-09-28T04:53:41.909Z,67108860.00
2022-09-28T04:54:41.920Z,67108860.00
2022-09-28T04:55:41.890Z,67108860.00
2022-09-28T04:56:41.910Z,67108860.00
2022-09-28T04:57:41.851Z,67108860.00
2022-09-28T04:58:41.844Z,67108860.00
2022-09-28T04:59:41.811Z,67108860.00
2022-09-28T05:00:41.848Z,67108860.00
2022-09-28T05:01:41.792Z,67108860.00
2022-09-28T05:02:41.887Z,67108860.00
2022-09-28T05:03:41.773Z,67108860.00
2022-09-28T05:04:44.762Z,67108860.00
2022-09-28T05:05:44.765Z,67108860.00
2022-09-28T05:06:41.771Z,67108860.00
2022-09-28T05:07:41.713Z,67108860.00
2022-09-28T05:08:41.737Z,67108860.00
2022-09-28T05:09:41.698Z,67108860.00
2022-09-28T05:10:41.704Z,67108860.00
2022-09-28T05:11:41.673Z,67108860.00
2022-09-28T05:12:41.674Z,67108860.00
2022-09-28T05:13:41.679Z,67108860.00
2022-09-28T05:14:41.665Z,67108860.00
2022-09-28T05:15:41.625Z,67108860.00
2022-09-28T05:16:41.689Z,67108860.00
2022-09-28T05:17:41.591Z,67108860.00
2022-09-28T05:18:41.565Z,67108860.00
2022-09-28T05:19:41.555Z,67108860.00
2022-09-28T05:20:41.565Z,67108860.00
2022-09-28T05:21:41.547Z,67108860.00
2022-09-28T05:22:41.557Z,67108860.00
2022-09-28T05:23:41.515Z,67108860.00
2022-09-28T05:24:44.491Z,67108860.00
2022-09-28T05:25:44.497Z,67108860.00
2022-09-28T05:26:41.457Z,67108860.00
2022-09-28T05:27:41.507Z,67108860.00
2022-09-28T05:28:41.438Z,67108860.00
2022-09-28T05:29:41.429Z,67108860.00
2022-09-28T05:30:41.420Z,67108860.00
2022-09-28T05:31:41.475Z,67108860.00
2022-09-28T05:32:41.370Z,67108860.00
2022-09-28T05:33:41.419Z,67108860.00
2022-09-28T05:34:41.349Z,67108860.00
2022-09-28T05:35:41.339Z,67108860.00
2022-09-28T05:36:41.549Z,67108860.00
2022-09-28T05:37:41.599Z,67108860.00
2022-09-28T05:38:50.070Z,67108860.00
2022-09-28T05:39:41.518Z,67108860.00
2022-09-28T05:40:41.508Z,67108860.00
2022-09-28T05:41:41.738Z,67108860.00
2022-09-28T05:42:41.516Z,67108860.00
2022-09-28T05:43:41.488Z,67108860.00
2022-09-28T05:44:45.093Z,67108860.00
2022-09-28T05:45:44.590Z,67108860.00
2022-09-28T05:46:41.588Z,67108860.00
2022-09-28T05:47:41.513Z,67108860.00
2022-09-28T05:48:41.415Z,67108860.00
2022-09-28T05:49:41.373Z,67108860.00
2022-09-28T05:50:41.398Z,67108860.00
2022-09-28T05:51:41.477Z,67108860.00
2022-09-28T05:52:41.340Z,67108860.00
2022-09-28T05:53:41.609Z,67108860.00
2022-09-28T05:54:41.219Z,67108860.00
2022-09-28T05:55:41.224Z,67108860.00
2022-09-28T05:56:41.156Z,67108860.00
2022-09-28T05:57:41.155Z,67108860.00
2022-09-28T05:58:41.204Z,67108860.00
2022-09-28T05:59:41.065Z,67108860.00
2022-09-28T06:00:55.233Z,67108860.00
2022-09-28T06:01:41.159Z,67108860.00
2022-09-28T06:02:41.144Z,67108860.00
2022-09-28T06:03:41.065Z,67108860.00
2022-09-28T06:04:44.065Z,67108860.00
2022-09-28T06:05:44.025Z,67108860.00
2022-09-28T06:06:41.135Z,67108860.00
2022-09-28T06:07:40.966Z,67108860.00
2022-09-28T06:08:40.965Z,67108860.00
2022-09-28T06:09:40.947Z,67108860.00
2022-09-28T06:10:40.925Z,67108860.00
2022-09-28T06:11:40.876Z,67108860.00
2022-09-28T06:12:40.879Z,67108860.00
2022-09-28T06:13:40.867Z,67108860.00
2022-09-28T06:14:40.855Z,67108860.00
2022-09-28T06:15:40.828Z,67108860.00
2022-09-28T06:16:43.845Z,67108860.00
2022-09-28T06:17:40.819Z,67108860.00
2022-09-28T06:18:40.768Z,67108860.00
2022-09-28T06:19:40.789Z,67108860.00
2022-09-28T06:20:40.755Z,67108860.00
2022-09-28T06:21:40.738Z,67108860.00
2022-09-28T06:22:40.726Z,67108860.00
2022-09-28T06:23:42.710Z,67108860.00
2022-09-28T06:24:43.720Z,67108860.00
2022-09-28T06:25:43.694Z,67108860.00
2022-09-28T06:26:40.661Z,67108860.00
2022-09-28T06:27:40.673Z,67108860.00
2022-09-28T06:28:40.641Z,67108860.00
2022-09-28T06:29:40.631Z,67108860.00
2022-09-28T06:30:40.656Z,67108860.00
2022-09-28T06:31:40.611Z,67108860.00
2022-09-28T06:32:40.612Z,67108860.00
2022-09-28T06:33:40.569Z,67108860.00
2022-09-28T06:34:40.554Z,67108860.00
2022-09-28T06:35:40.566Z,67108860.00
2022-09-28T06:36:40.533Z,67108860.00
2022-09-28T06:37:40.553Z,67108860.00
2022-09-28T06:38:40.502Z,67108860.00
2022-09-28T06:39:40.476Z,67108860.00
2022-09-28T06:40:40.506Z,67108860.00
2022-09-28T06:41:40.454Z,67108860.00
2022-09-28T06:42:40.444Z,67108860.00
2022-09-28T06:43:40.464Z,67108860.00
2022-09-28T06:44:43.418Z,67108860.00
2022-09-28T06:45:43.434Z,67108860.00
2022-09-28T06:46:40.393Z,67108860.00
2022-09-28T06:47:40.387Z,67108860.00
2022-09-28T06:48:40.415Z,67108860.00
2022-09-28T06:49:40.347Z,67108860.00
2022-09-28T06:50:40.335Z,67108860.00
2022-09-28T06:51:40.331Z,67108860.00
2022-09-28T06:52:40.295Z,67108860.00
2022-09-28T06:53:40.294Z,67108860.00
2022-09-28T06:54:40.306Z,67108860.00
2022-09-28T06:55:40.268Z,67108860.00
2022-09-28T06:56:40.237Z,67108860.00
2022-09-28T06:57:40.237Z,67108860.00
2022-09-28T06:58:40.208Z,67108860.00
2022-09-28T06:59:40.227Z,67108860.00
2022-09-28T07:00:40.224Z,67108860.00
2022-09-28T07:01:40.243Z,67108860.00
2022-09-28T07:02:40.222Z,67108860.00
2022-09-28T07:03:40.156Z,67108860.00
2022-09-28T07:04:43.169Z,67108860.00
2022-09-28T07:05:43.130Z,67108860.00
2022-09-28T07:06:40.153Z,67108860.00
2022-09-28T07:07:40.091Z,67108860.00
2022-09-28T07:08:40.083Z,67108860.00
2022-09-28T07:09:44.938Z,67108860.00
2022-09-28T07:10:41.075Z,67108860.00
2022-09-28T07:11:40.050Z,67108860.00
2022-09-28T07:12:40.060Z,67108860.00
2022-09-28T07:13:50.408Z,67108860.00
2022-09-28T07:14:47.699Z,67108860.00
2022-09-28T07:15:41.002Z,67108860.00
2022-09-28T07:17:05.203Z,67108860.00
2022-09-28T07:17:55.822Z,67108860.00
2022-09-28T07:18:40.942Z,67108860.00
2022-09-28T07:19:39.933Z,67108860.00
2022-09-28T07:20:51.852Z,67108860.00
2022-09-28T07:21:40.903Z,67108860.00
2022-09-28T07:22:43.367Z,67108860.00
2022-09-28T07:23:50.921Z,67108860.00
2022-09-28T07:24:43.864Z,67108860.00
2022-09-28T07:25:42.876Z,67108860.00
2022-09-28T07:26:39.840Z,67108860.00
2022-09-28T07:27:39.844Z,67108860.00
2022-09-28T07:28:39.874Z,67108860.00
2022-09-28T07:29:39.806Z,67108860.00
2022-09-28T07:30:39.893Z,67108860.00
2022-09-28T07:31:39.796Z,67108860.00
2022-09-28T07:32:39.765Z,67108860.00
2022-09-28T07:33:39.759Z,67108860.00
2022-09-28T07:34:39.777Z,67108860.00
2022-09-28T07:35:39.726Z,67108860.00
2022-09-28T07:36:39.708Z,67108860.00
2022-09-28T07:37:39.698Z,67108860.00
2022-09-28T07:38:39.683Z,67108860.00
2022-09-28T07:39:39.688Z,67108860.00
2022-09-28T07:40:39.868Z,67108860.00
2022-09-28T07:43:32.130Z,3368.00
2022-09-28T07:44:43.860Z,3848.00
2022-09-28T07:45:32.363Z,4296.00
2022-09-28T07:46:31.726Z,3468.00
2022-09-28T07:47:35.106Z,3548.00
2022-09-28T07:48:31.785Z,3768.00
2022-09-28T07:49:31.780Z,3640.00
2022-09-28T07:50:31.789Z,3392.00
2022-09-28T07:51:31.650Z,3304.00
2022-09-28T07:52:31.830Z,3836.00
2022-09-28T07:53:31.872Z,3620.00
2022-09-28T07:54:31.899Z,3520.00
2022-09-28T07:55:31.559Z,3928.00
2022-09-28T07:56:31.498Z,3832.00
2022-09-28T07:57:31.527Z,3804.00
2022-09-28T07:58:31.471Z,3752.00
2022-09-28T07:59:31.503Z,3596.00
2022-09-28T08:00:34.153Z,3636.00
2022-09-28T08:01:31.470Z,3448.00
2022-09-28T08:02:34.562Z,3376.00
2022-09-28T08:03:34.427Z,3472.00
2022-09-28T08:04:31.539Z,3668.00
2022-09-28T08:05:31.541Z,3800.00
2022-09-28T08:06:31.636Z,3876.00
2022-09-28T08:07:31.614Z,3664.00
2022-09-28T08:08:31.394Z,3632.00
2022-09-28T08:09:31.465Z,3688.00
2022-09-28T08:10:31.479Z,3732.00
2022-09-28T08:11:31.388Z,3672.00
2022-09-28T08:12:31.424Z,3616.00
2022-09-28T08:13:31.369Z,3560.00
2022-09-28T08:14:31.437Z,3716.00
2022-09-28T08:15:31.338Z,3788.00
2022-09-28T08:16:31.409Z,3688.00
2022-09-28T08:17:31.227Z,3764.00
2022-09-28T08:18:31.245Z,3772.00
2022-09-28T08:19:31.177Z,3872.00
2022-09-28T08:20:31.216Z,3896.00
2022-09-28T08:21:31.207Z,3984.00
2022-09-28T08:22:34.181Z,4240.00
2022-09-28T08:23:34.147Z,4500.00
2022-09-28T08:24:31.116Z,4500.00
2022-09-28T08:25:31.098Z,4300.00
2022-09-28T08:26:31.092Z,4228.00
2022-09-28T08:27:31.118Z,4212.00
2022-09-28T08:28:31.058Z,4248.00
2022-09-28T08:29:31.086Z,4300.00
2022-09-28T08:30:31.072Z,4264.00
2022-09-28T08:31:31.009Z,4268.00
2022-09-28T08:32:31.025Z,4428.00
2022-09-28T08:33:31.049Z,4608.00
2022-09-28T08:34:30.980Z,4684.00
2022-09-28T08:35:30.953Z,4712.00
2022-09-28T08:36:30.950Z,4656.00
2022-09-28T08:37:30.950Z,4592.00
2022-09-28T08:38:30.944Z,4524.00
2022-09-28T08:39:30.945Z,4436.00
2022-09-28T08:40:30.979Z,4404.00
2022-09-28T08:41:30.953Z,4480.00
2022-09-28T08:42:33.882Z,4668.00
2022-09-28T08:43:33.893Z,4904.00
2022-09-28T08:44:30.910Z,4964.00
2022-09-28T08:45:30.836Z,4868.00
2022-09-28T08:46:30.855Z,4756.00
2022-09-28T08:47:30.836Z,4784.00
2022-09-28T08:48:30.815Z,4836.00
2022-09-28T08:49:30.947Z,4772.00
2022-09-28T08:50:30.760Z,4580.00
2022-09-28T08:51:30.765Z,4512.00
2022-09-28T08:52:30.725Z,4592.00
2022-09-28T08:53:30.910Z,4708.00
2022-09-28T08:54:30.723Z,4744.00
2022-09-28T08:55:30.685Z,4780.00
2022-09-28T08:56:30.677Z,4684.00
2022-09-28T08:57:30.678Z,4560.00
2022-09-28T08:58:30.647Z,4488.00
2022-09-28T08:59:30.658Z,4528.00
2022-09-28T09:00:30.643Z,4596.00
2022-09-28T09:01:30.642Z,4596.00
2022-09-28T09:02:33.898Z,4532.00
2022-09-28T09:03:33.640Z,4500.00
2022-09-28T09:04:30.612Z,4500.00
2022-09-28T09:05:30.548Z,4528.00
2022-09-28T09:06:30.559Z,4572.00
2022-09-28T09:07:30.540Z,4636.00
2022-09-28T09:08:30.520Z,4656.00
2022-09-28T09:09:30.570Z,4760.00
2022-09-28T09:10:30.560Z,4884.00
2022-09-28T09:11:30.481Z,4996.00
2022-09-28T09:12:30.463Z,5080.00
2022-09-28T09:13:30.457Z,5136.00
2022-09-28T09:14:30.452Z,5168.00
2022-09-28T09:15:30.452Z,5168.00
2022-09-28T09:16:30.488Z,5200.00
2022-09-28T09:17:30.420Z,5304.00
2022-09-28T09:18:30.389Z,5488.00
2022-09-28T09:19:30.403Z,5720.00
2022-09-28T09:20:30.372Z,5832.00
2022-09-28T09:21:30.352Z,5772.00
2022-09-28T09:22:33.349Z,5788.00
2022-09-28T09:23:33.337Z,5784.00
2022-09-28T09:24:30.374Z,5776.00
2022-09-28T09:25:30.312Z,5708.00
2022-09-28T09:26:30.276Z,5576.00
2022-09-28T09:27:30.274Z,5512.00
2022-09-28T09:28:30.265Z,5444.00
2022-09-28T09:29:30.243Z,5396.00
2022-09-28T09:30:31.656Z,5380.00
2022-09-28T09:31:30.224Z,5352.00
2022-09-28T09:32:30.196Z,5280.00
2022-09-28T09:33:30.198Z,5136.00
2022-09-28T09:34:30.208Z,5060.00
2022-09-28T09:35:31.419Z,5060.00
2022-09-28T09:36:30.141Z,5184.00
2022-09-28T09:37:30.138Z,5368.00
2022-09-28T09:38:30.101Z,5448.00
2022-09-28T09:39:30.106Z,5680.00
2022-09-28T09:40:30.142Z,5028.00
2022-09-28T09:41:30.110Z,4928.00
2022-09-28T09:42:33.060Z,4936.00
2022-09-28T09:43:33.048Z,5324.00
2022-09-28T09:44:30.021Z,5400.00
2022-09-28T09:45:30.105Z,5156.00
2022-09-28T09:46:30.020Z,4800.00
2022-09-28T09:47:30.031Z,4372.00
2022-09-28T09:48:29.985Z,4000.00
2022-09-28T09:49:29.968Z,4060.00
2022-09-28T09:50:30.001Z,3788.00
2022-09-28T09:51:29.932Z,3628.00
2022-09-28T09:52:30.027Z,3516.00
2022-09-28T09:53:29.894Z,3552.00
2022-09-28T09:54:29.883Z,3544.00
2022-09-28T09:55:30.468Z,3640.00
2022-09-28T09:56:29.864Z,3888.00
2022-09-28T09:57:29.851Z,4296.00
2022-09-28T09:58:29.876Z,4424.00
2022-09-28T09:59:29.854Z,4640.00
2022-09-28T10:00:29.805Z,4680.00
2022-09-28T10:01:29.844Z,4640.00
2022-09-28T10:02:32.836Z,4496.00
2022-09-28T10:03:32.817Z,4012.00
2022-09-28T10:04:29.758Z,3600.00
2022-09-28T10:05:29.762Z,3508.00
2022-09-28T10:06:29.722Z,3312.00
2022-09-28T10:07:29.885Z,3228.00
2022-09-28T10:08:29.699Z,3116.00
2022-09-28T10:09:29.708Z,3068.00
2022-09-28T10:10:29.689Z,3256.00
2022-09-28T10:11:29.669Z,3420.00
2022-09-28T10:12:29.667Z,3348.00
2022-09-28T10:13:29.686Z,3796.00
2022-09-28T10:14:29.631Z,4568.00
2022-09-28T10:15:29.600Z,4664.00
2022-09-28T10:16:29.702Z,4672.00
2022-09-28T10:17:29.580Z,4288.00
2022-09-28T10:18:29.577Z,4408.00
2022-09-28T10:19:29.551Z,3932.00
2022-09-28T10:20:29.569Z,3596.00
2022-09-28T10:21:29.528Z,3436.00
2022-09-28T10:22:32.544Z,3404.00
2022-09-28T10:23:32.514Z,3440.00
2022-09-28T10:24:29.555Z,3500.00
2022-09-28T10:25:29.556Z,4016.00
2022-09-28T10:26:29.445Z,4632.00
2022-09-28T10:27:29.458Z,4552.00
2022-09-28T10:28:29.466Z,4124.00
2022-09-28T10:29:29.419Z,4848.00
2022-09-28T10:30:29.438Z,4948.00
2022-09-28T10:31:29.447Z,5004.00
2022-09-28T10:32:29.354Z,5304.00
2022-09-28T10:33:29.345Z,4500.00
2022-09-28T10:34:29.337Z,4200.00
2022-09-28T10:35:29.327Z,4612.00
2022-09-28T10:36:29.307Z,4924.00
2022-09-28T10:37:29.340Z,4624.00
2022-09-28T10:38:29.277Z,4776.00
2022-09-28T10:39:29.267Z,4564.00
2022-09-28T10:40:29.277Z,4324.00
2022-09-28T10:41:29.247Z,4196.00
2022-09-28T10:42:32.248Z,4132.00
2022-09-28T10:43:32.230Z,3860.00
2022-09-28T10:44:29.194Z,4096.00
2022-09-28T10:45:29.217Z,4224.00
2022-09-28T10:46:29.223Z,4124.00
2022-09-28T10:47:29.156Z,4432.00
2022-09-28T10:48:29.127Z,4340.00
2022-09-28T10:49:29.112Z,4512.00
2022-09-28T10:50:29.173Z,4176.00
2022-09-28T10:51:29.091Z,4160.00
2022-09-28T10:52:29.072Z,4248.00
2022-09-28T10:53:29.075Z,4600.00
2022-09-28T10:54:29.051Z,5080.00
2022-09-28T10:55:29.042Z,5376.00
2022-09-28T10:56:29.051Z,5332.00
2022-09-28T10:57:29.021Z,5200.00
2022-09-28T10:58:29.020Z,5068.00
2022-09-28T10:59:28.984Z,4812.00
2022-09-28T11:00:28.964Z,4536.00
2022-09-28T11:01:28.984Z,4304.00
2022-09-28T11:02:35.678Z,4256.00
2022-09-28T11:03:31.994Z,4224.00
2022-09-28T11:04:28.919Z,4260.00
2022-09-28T11:05:28.897Z,4240.00
2022-09-28T11:06:28.935Z,4292.00
2022-09-28T11:07:28.878Z,3348.00
2022-09-28T11:08:28.859Z,3388.00
2022-09-28T11:09:30.834Z,3844.00
2022-09-28T11:10:28.836Z,4176.00
2022-09-28T11:11:28.817Z,3712.00
2022-09-28T11:12:28.837Z,3536.00
2022-09-28T11:13:30.148Z,4408.00
2022-09-28T11:14:28.779Z,4664.00
2022-09-28T11:15:28.797Z,4588.00
2022-09-28T11:16:28.815Z,4556.00
2022-09-28T11:17:28.739Z,4656.00
2022-09-28T11:18:28.749Z,4712.00
2022-09-28T11:19:28.717Z,4772.00
2022-09-28T11:20:28.790Z,4824.00
2022-09-28T11:21:28.694Z,4672.00
2022-09-28T11:22:31.671Z,4388.00
2022-09-28T11:23:31.723Z,4656.00
2022-09-28T11:24:28.641Z,5192.00
2022-09-28T11:25:28.660Z,4096.00
2022-09-28T11:26:28.621Z,4128.00
2022-09-28T11:27:28.622Z,4052.00
2022-09-28T11:28:28.652Z,3992.00
2022-09-28T11:29:28.588Z,4108.00
2022-09-28T11:30:28.619Z,4960.00
2022-09-28T11:31:28.554Z,5204.00
2022-09-28T11:32:28.554Z,5308.00
2022-09-28T11:33:28.534Z,5360.00
2022-09-28T11:34:41.808Z,5264.00
2022-09-28T11:35:29.496Z,4824.00
2022-09-28T11:36:28.506Z,4912.00
2022-09-28T11:37:28.485Z,5088.00
2022-09-28T11:38:28.465Z,4856.00
2022-09-28T11:39:28.509Z,5036.00
2022-09-28T11:40:28.453Z,4524.00
2022-09-28T11:41:28.407Z,4612.00
2022-09-28T11:42:31.409Z,4600.00
2022-09-28T11:43:31.436Z,4628.00
2022-09-28T11:44:31.097Z,4612.00